sensor_id;sensor_type;location;lat;lon;timestamp;P1;durP1;ratioP1;P2;durP2;ratioP2
76727;SDS011;65652;53.132;18.026;2023-02-24T00:01:23;48.60;;;21.50;;
76727;SDS011;65652;53.132;18.026;2023-02-24T00:03:51;53.20;;;21.20;;
76727;SDS011;65652;53.132;18.026;2023-02-24T00:06:18;58.10;;;22.00;;
76727;SDS011;65652;53.132;18.026;2023-02-24T00:08:45;47.50;;;21.20;;
76727;SDS011;65652;53.132;18.026;2023-02-24T00:11:12;44.20;;;20.00;;
76727;SDS011;65652;53.132;18.026;2023-02-24T00:13:40;44.30;;;19.40;;
76727;SDS011;65652;53.132;18.026;2023-02-24T00:16:12;47.90;;;20.00;;
76727;SDS011;65652;53.132;18.026;2023-02-24T00:18:44;46.90;;;19.30;;
76727;SDS011;65652;53.132;18.026;2023-02-24T00:21:12;44.00;;;19.80;;
76727;SDS011;65652;53.132;18.026;2023-02-24T00:23:44;43.40;;;20.40;;
76727;SDS011;65652;53.132;18.026;2023-02-24T00:26:12;47.20;;;19.10;;
76727;SDS011;65652;53.132;18.026;2023-02-24T00:28:40;37.00;;;16.70;;
76727;SDS011;65652;53.132;18.026;2023-02-24T00:31:08;45.00;;;18.70;;
76727;SDS011;65652;53.132;18.026;2023-02-24T00:33:39;30.10;;;13.10;;
76727;SDS011;65652;53.132;18.026;2023-02-24T00:36:07;41.20;;;18.40;;
76727;SDS011;65652;53.132;18.026;2023-02-24T00:38:35;39.30;;;16.60;;
76727;SDS011;65652;53.132;18.026;2023-02-24T00:41:15;43.50;;;18.50;;
76727;SDS011;65652;53.132;18.026;2023-02-24T00:43:48;41.40;;;17.10;;
76727;SDS011;65652;53.132;18.026;2023-02-24T00:46:17;37.20;;;16.80;;
76727;SDS011;65652;53.132;18.026;2023-02-24T00:48:48;38.20;;;16.90;;
76727;SDS011;65652;53.132;18.026;2023-02-24T00:51:20;40.30;;;17.30;;
76727;SDS011;65652;53.132;18.026;2023-02-24T00:53:52;39.20;;;17.10;;
76727;SDS011;65652;53.132;18.026;2023-02-24T00:56:21;39.80;;;17.00;;
76727;SDS011;65652;53.132;18.026;2023-02-24T00:58:48;35.70;;;14.90;;
76727;SDS011;65652;53.132;18.026;2023-02-24T01:01:19;35.60;;;16.30;;
76727;SDS011;65652;53.132;18.026;2023-02-24T01:03:48;38.10;;;17.30;;
76727;SDS011;65652;53.132;18.026;2023-02-24T01:06:17;40.50;;;17.80;;
76727;SDS011;65652;53.132;18.026;2023-02-24T01:08:49;32.20;;;15.20;;
76727;SDS011;65652;53.132;18.026;2023-02-24T01:11:18;40.50;;;16.30;;
76727;SDS011;65652;53.132;18.026;2023-02-24T01:14:24;32.80;;;14.10;;
76727;SDS011;65652;53.132;18.026;2023-02-24T01:16:52;40.70;;;15.50;;
76727;SDS011;65652;53.132;18.026;2023-02-24T01:19:19;41.30;;;18.10;;
76727;SDS011;65652;53.132;18.026;2023-02-24T01:21:47;37.50;;;16.70;;
76727;SDS011;65652;53.132;18.026;2023-02-24T01:24:20;34.00;;;15.30;;
76727;SDS011;65652;53.132;18.026;2023-02-24T01:26:48;45.30;;;17.60;;
76727;SDS011;65652;53.132;18.026;2023-02-24T01:29:14;36.70;;;16.10;;
76727;SDS011;65652;53.132;18.026;2023-02-24T01:31:40;28.90;;;12.80;;
76727;SDS011;65652;53.132;18.026;2023-02-24T01:34:10;30.80;;;12.60;;
76727;SDS011;65652;53.132;18.026;2023-02-24T01:36:38;34.30;;;15.00;;
76727;SDS011;65652;53.132;18.026;2023-02-24T01:39:05;38.30;;;15.30;;
76727;SDS011;65652;53.132;18.026;2023-02-24T01:41:36;39.30;;;16.70;;
76727;SDS011;65652;53.132;18.026;2023-02-24T01:44:06;39.80;;;15.80;;
76727;SDS011;65652;53.132;18.026;2023-02-24T01:46:54;40.60;;;15.50;;
76727;SDS011;65652;53.132;18.026;2023-02-24T01:52:23;41.40;;;17.90;;
76727;SDS011;65652;53.132;18.026;2023-02-24T01:54:56;36.20;;;15.20;;
76727;SDS011;65652;53.132;18.026;2023-02-24T01:57:31;37.70;;;16.50;;
76727;SDS011;65652;53.132;18.026;2023-02-24T02:00:00;23.90;;;8.90;;
76727;SDS011;65652;53.132;18.026;2023-02-24T02:02:40;38.00;;;14.50;;
76727;SDS011;65652;53.132;18.026;2023-02-24T02:05:11;36.00;;;15.20;;
76727;SDS011;65652;53.132;18.026;2023-02-24T02:07:38;35.60;;;15.00;;
76727;SDS011;65652;53.132;18.026;2023-02-24T02:10:06;37.80;;;15.00;;
76727;SDS011;65652;53.132;18.026;2023-02-24T02:12:34;31.50;;;13.80;;
76727;SDS011;65652;53.132;18.026;2023-02-24T02:15:05;32.70;;;13.60;;
76727;SDS011;65652;53.132;18.026;2023-02-24T02:22:45;27.90;;;11.90;;
76727;SDS011;65652;53.132;18.026;2023-02-24T02:38:42;33.00;;;12.80;;
76727;SDS011;65652;53.132;18.026;2023-02-24T02:41:29;37.60;;;15.30;;
76727;SDS011;65652;53.132;18.026;2023-02-24T02:44:24;36.80;;;14.00;;
76727;SDS011;65652;53.132;18.026;2023-02-24T02:46:58;32.10;;;12.50;;
76727;SDS011;65652;53.132;18.026;2023-02-24T02:49:35;35.80;;;13.70;;
76727;SDS011;65652;53.132;18.026;2023-02-24T02:52:09;34.20;;;13.30;;
76727;SDS011;65652;53.132;18.026;2023-02-24T02:57:18;27.20;;;10.80;;
76727;SDS011;65652;53.132;18.026;2023-02-24T02:59:52;26.90;;;10.60;;
76727;SDS011;65652;53.132;18.026;2023-02-24T03:02:28;33.50;;;12.40;;
76727;SDS011;65652;53.132;18.026;2023-02-24T03:05:03;35.50;;;13.00;;
76727;SDS011;65652;53.132;18.026;2023-02-24T03:07:35;34.70;;;14.10;;
76727;SDS011;65652;53.132;18.026;2023-02-24T03:10:08;35.50;;;13.20;;
76727;SDS011;65652;53.132;18.026;2023-02-24T03:12:46;35.70;;;13.50;;
76727;SDS011;65652;53.132;18.026;2023-02-24T03:15:16;32.30;;;12.00;;
76727;SDS011;65652;53.132;18.026;2023-02-24T03:17:51;36.60;;;12.90;;
76727;SDS011;65652;53.132;18.026;2023-02-24T03:20:23;33.40;;;13.30;;
76727;SDS011;65652;53.132;18.026;2023-02-24T03:22:59;36.00;;;14.20;;
76727;SDS011;65652;53.132;18.026;2023-02-24T03:25:50;34.70;;;13.40;;
76727;SDS011;65652;53.132;18.026;2023-02-24T03:28:35;31.30;;;12.10;;
76727;SDS011;65652;53.132;18.026;2023-02-24T03:31:09;32.20;;;12.50;;
76727;SDS011;65652;53.132;18.026;2023-02-24T03:34:09;34.20;;;12.50;;
76727;SDS011;65652;53.132;18.026;2023-02-24T03:36:39;28.50;;;12.00;;
76727;SDS011;65652;53.132;18.026;2023-02-24T03:39:05;32.50;;;12.20;;
76727;SDS011;65652;53.132;18.026;2023-02-24T03:44:27;33.70;;;12.90;;
76727;SDS011;65652;53.132;18.026;2023-02-24T03:46:54;34.60;;;11.40;;
76727;SDS011;65652;53.132;18.026;2023-02-24T03:49:21;29.30;;;10.80;;
76727;SDS011;65652;53.132;18.026;2023-02-24T03:52:04;32.30;;;12.80;;
76727;SDS011;65652;53.132;18.026;2023-02-24T03:54:43;31.90;;;12.20;;
76727;SDS011;65652;53.132;18.026;2023-02-24T04:00:29;33.80;;;12.30;;
76727;SDS011;65652;53.132;18.026;2023-02-24T04:06:04;33.20;;;11.00;;
76727;SDS011;65652;53.132;18.026;2023-02-24T04:08:40;32.50;;;11.80;;
76727;SDS011;65652;53.132;18.026;2023-02-24T04:11:23;34.30;;;12.10;;
76727;SDS011;65652;53.132;18.026;2023-02-24T04:14:02;34.00;;;11.50;;
76727;SDS011;65652;53.132;18.026;2023-02-24T04:19:16;28.70;;;10.70;;
76727;SDS011;65652;53.132;18.026;2023-02-24T04:21:44;31.60;;;12.30;;
76727;SDS011;65652;53.132;18.026;2023-02-24T04:24:17;31.70;;;11.40;;
76727;SDS011;65652;53.132;18.026;2023-02-24T04:26:48;30.60;;;11.00;;
76727;SDS011;65652;53.132;18.026;2023-02-24T04:29:20;31.00;;;11.20;;
76727;SDS011;65652;53.132;18.026;2023-02-24T04:31:56;31.00;;;11.10;;
76727;SDS011;65652;53.132;18.026;2023-02-24T04:34:27;32.90;;;11.30;;
76727;SDS011;65652;53.132;18.026;2023-02-24T04:36:57;31.10;;;11.20;;
76727;SDS011;65652;53.132;18.026;2023-02-24T04:39:27;33.00;;;11.80;;
76727;SDS011;65652;53.132;18.026;2023-02-24T04:44:22;32.30;;;10.70;;
76727;SDS011;65652;53.132;18.026;2023-02-24T04:46:50;31.80;;;10.60;;
76727;SDS011;65652;53.132;18.026;2023-02-24T04:49:17;29.00;;;10.60;;
76727;SDS011;65652;53.132;18.026;2023-02-24T04:51:44;28.70;;;10.30;;
76727;SDS011;65652;53.132;18.026;2023-02-24T04:54:11;30.60;;;10.60;;
76727;SDS011;65652;53.132;18.026;2023-02-24T04:56:45;30.80;;;10.90;;
76727;SDS011;65652;53.132;18.026;2023-02-24T04:59:16;31.80;;;10.20;;
76727;SDS011;65652;53.132;18.026;2023-02-24T05:01:44;24.30;;;8.50;;
76727;SDS011;65652;53.132;18.026;2023-02-24T05:04:11;25.70;;;8.80;;
76727;SDS011;65652;53.132;18.026;2023-02-24T05:06:42;23.50;;;9.00;;
76727;SDS011;65652;53.132;18.026;2023-02-24T05:09:09;30.50;;;11.70;;
76727;SDS011;65652;53.132;18.026;2023-02-24T05:11:40;28.40;;;10.60;;
76727;SDS011;65652;53.132;18.026;2023-02-24T05:14:11;25.00;;;8.70;;
76727;SDS011;65652;53.132;18.026;2023-02-24T05:16:41;25.50;;;8.90;;
76727;SDS011;65652;53.132;18.026;2023-02-24T05:19:13;28.60;;;9.50;;
76727;SDS011;65652;53.132;18.026;2023-02-24T05:21:59;25.90;;;9.70;;
76727;SDS011;65652;53.132;18.026;2023-02-24T05:24:29;28.40;;;9.80;;
76727;SDS011;65652;53.132;18.026;2023-02-24T05:26:56;34.90;;;10.90;;
76727;SDS011;65652;53.132;18.026;2023-02-24T05:29:28;30.70;;;10.60;;
76727;SDS011;65652;53.132;18.026;2023-02-24T05:31:57;27.20;;;9.50;;
76727;SDS011;65652;53.132;18.026;2023-02-24T05:34:28;25.60;;;10.50;;
76727;SDS011;65652;53.132;18.026;2023-02-24T05:36:56;26.90;;;9.90;;
76727;SDS011;65652;53.132;18.026;2023-02-24T05:39:23;26.30;;;9.90;;
76727;SDS011;65652;53.132;18.026;2023-02-24T05:41:52;29.80;;;10.50;;
76727;SDS011;65652;53.132;18.026;2023-02-24T05:44:23;32.70;;;11.60;;
76727;SDS011;65652;53.132;18.026;2023-02-24T05:46:51;31.30;;;11.50;;
76727;SDS011;65652;53.132;18.026;2023-02-24T05:49:24;28.80;;;10.90;;
76727;SDS011;65652;53.132;18.026;2023-02-24T05:51:58;33.40;;;11.90;;
76727;SDS011;65652;53.132;18.026;2023-02-24T05:54:27;30.40;;;10.60;;
76727;SDS011;65652;53.132;18.026;2023-02-24T05:57:00;27.10;;;9.80;;
76727;SDS011;65652;53.132;18.026;2023-02-24T05:59:28;25.00;;;9.80;;
76727;SDS011;65652;53.132;18.026;2023-02-24T06:01:58;27.80;;;9.60;;
76727;SDS011;65652;53.132;18.026;2023-02-24T06:04:35;30.90;;;10.70;;
76727;SDS011;65652;53.132;18.026;2023-02-24T06:07:11;29.10;;;10.00;;
76727;SDS011;65652;53.132;18.026;2023-02-24T06:09:44;30.10;;;10.10;;
76727;SDS011;65652;53.132;18.026;2023-02-24T06:12:15;30.10;;;10.40;;
76727;SDS011;65652;53.132;18.026;2023-02-24T06:14:43;28.40;;;10.40;;
76727;SDS011;65652;53.132;18.026;2023-02-24T06:17:09;17.30;;;6.20;;
76727;SDS011;65652;53.132;18.026;2023-02-24T06:19:36;11.20;;;3.80;;
76727;SDS011;65652;53.132;18.026;2023-02-24T06:22:02;9.60;;;3.20;;
76727;SDS011;65652;53.132;18.026;2023-02-24T06:24:29;8.90;;;2.50;;
76727;SDS011;65652;53.132;18.026;2023-02-24T06:26:58;9.10;;;3.20;;
76727;SDS011;65652;53.132;18.026;2023-02-24T06:29:35;10.80;;;3.50;;
76727;SDS011;65652;53.132;18.026;2023-02-24T06:32:02;12.60;;;3.50;;
76727;SDS011;65652;53.132;18.026;2023-02-24T06:34:33;9.10;;;2.70;;
76727;SDS011;65652;53.132;18.026;2023-02-24T06:37:01;9.00;;;2.70;;
76727;SDS011;65652;53.132;18.026;2023-02-24T06:39:29;8.80;;;2.90;;
76727;SDS011;65652;53.132;18.026;2023-02-24T06:41:57;9.80;;;3.30;;
76727;SDS011;65652;53.132;18.026;2023-02-24T06:44:29;9.40;;;3.40;;
76727;SDS011;65652;53.132;18.026;2023-02-24T06:46:56;10.30;;;2.60;;
76727;SDS011;65652;53.132;18.026;2023-02-24T06:49:23;10.00;;;3.90;;
76727;SDS011;65652;53.132;18.026;2023-02-24T06:51:50;9.60;;;4.20;;
76727;SDS011;65652;53.132;18.026;2023-02-24T06:54:17;10.80;;;4.70;;
76727;SDS011;65652;53.132;18.026;2023-02-24T06:56:43;10.80;;;5.20;;
76727;SDS011;65652;53.132;18.026;2023-02-24T06:59:10;13.50;;;5.80;;
76727;SDS011;65652;53.132;18.026;2023-02-24T07:01:46;10.40;;;4.70;;
76727;SDS011;65652;53.132;18.026;2023-02-24T07:04:14;12.00;;;5.80;;
76727;SDS011;65652;53.132;18.026;2023-02-24T07:06:42;14.60;;;6.80;;
76727;SDS011;65652;53.132;18.026;2023-02-24T07:09:12;12.30;;;4.70;;
76727;SDS011;65652;53.132;18.026;2023-02-24T07:11:42;12.30;;;5.50;;
76727;SDS011;65652;53.132;18.026;2023-02-24T07:14:11;9.70;;;4.40;;
76727;SDS011;65652;53.132;18.026;2023-02-24T07:16:38;12.20;;;4.50;;
76727;SDS011;65652;53.132;18.026;2023-02-24T07:19:13;9.20;;;3.50;;
76727;SDS011;65652;53.132;18.026;2023-02-24T07:21:41;11.10;;;5.40;;
76727;SDS011;65652;53.132;18.026;2023-02-24T07:24:13;9.00;;;3.20;;
76727;SDS011;65652;53.132;18.026;2023-02-24T07:26:56;8.80;;;3.90;;
76727;SDS011;65652;53.132;18.026;2023-02-24T07:29:24;10.30;;;2.70;;
76727;SDS011;65652;53.132;18.026;2023-02-24T07:31:52;13.60;;;3.70;;
76727;SDS011;65652;53.132;18.026;2023-02-24T07:34:23;8.20;;;2.70;;
76727;SDS011;65652;53.132;18.026;2023-02-24T07:36:50;5.60;;;2.30;;
76727;SDS011;65652;53.132;18.026;2023-02-24T07:39:17;9.00;;;3.20;;
76727;SDS011;65652;53.132;18.026;2023-02-24T07:41:44;8.00;;;2.90;;
76727;SDS011;65652;53.132;18.026;2023-02-24T07:44:14;8.70;;;2.20;;
76727;SDS011;65652;53.132;18.026;2023-02-24T07:46:42;7.50;;;1.70;;
76727;SDS011;65652;53.132;18.026;2023-02-24T07:49:13;9.10;;;2.50;;
76727;SDS011;65652;53.132;18.026;2023-02-24T07:51:45;8.50;;;2.00;;
76727;SDS011;65652;53.132;18.026;2023-02-24T07:54:18;9.90;;;2.40;;
76727;SDS011;65652;53.132;18.026;2023-02-24T07:56:46;7.40;;;2.10;;
76727;SDS011;65652;53.132;18.026;2023-02-24T07:59:21;9.70;;;1.90;;
76727;SDS011;65652;53.132;18.026;2023-02-24T08:01:53;10.20;;;2.30;;
76727;SDS011;65652;53.132;18.026;2023-02-24T08:04:22;9.80;;;2.60;;
76727;SDS011;65652;53.132;18.026;2023-02-24T08:06:50;8.30;;;2.20;;
76727;SDS011;65652;53.132;18.026;2023-02-24T08:09:25;9.90;;;3.70;;
76727;SDS011;65652;53.132;18.026;2023-02-24T08:12:11;12.80;;;3.90;;
76727;SDS011;65652;53.132;18.026;2023-02-24T08:14:46;10.20;;;2.70;;
76727;SDS011;65652;53.132;18.026;2023-02-24T08:17:20;12.10;;;3.50;;
76727;SDS011;65652;53.132;18.026;2023-02-24T08:19:48;13.50;;;3.40;;
76727;SDS011;65652;53.132;18.026;2023-02-24T08:22:25;9.00;;;2.70;;
76727;SDS011;65652;53.132;18.026;2023-02-24T08:24:54;9.50;;;2.60;;
76727;SDS011;65652;53.132;18.026;2023-02-24T08:27:22;11.50;;;3.50;;
76727;SDS011;65652;53.132;18.026;2023-02-24T08:29:53;13.90;;;4.00;;
76727;SDS011;65652;53.132;18.026;2023-02-24T08:34:50;15.30;;;4.40;;
76727;SDS011;65652;53.132;18.026;2023-02-24T08:37:27;12.90;;;4.40;;
76727;SDS011;65652;53.132;18.026;2023-02-24T08:39:59;14.70;;;5.20;;
76727;SDS011;65652;53.132;18.026;2023-02-24T08:42:25;13.20;;;5.90;;
76727;SDS011;65652;53.132;18.026;2023-02-24T08:45:02;13.70;;;6.10;;
76727;SDS011;65652;53.132;18.026;2023-02-24T08:47:29;13.10;;;5.60;;
76727;SDS011;65652;53.132;18.026;2023-02-24T08:49:56;17.30;;;6.30;;
76727;SDS011;65652;53.132;18.026;2023-02-24T08:52:25;14.90;;;5.90;;
76727;SDS011;65652;53.132;18.026;2023-02-24T08:54:52;13.20;;;5.80;;
76727;SDS011;65652;53.132;18.026;2023-02-24T08:57:24;14.60;;;5.40;;
76727;SDS011;65652;53.132;18.026;2023-02-24T08:59:51;19.10;;;6.80;;
76727;SDS011;65652;53.132;18.026;2023-02-24T09:02:23;14.60;;;4.90;;
76727;SDS011;65652;53.132;18.026;2023-02-24T09:04:58;16.10;;;5.20;;
76727;SDS011;65652;53.132;18.026;2023-02-24T09:10:01;17.70;;;5.00;;
76727;SDS011;65652;53.132;18.026;2023-02-24T09:12:29;12.90;;;4.90;;
76727;SDS011;65652;53.132;18.026;2023-02-24T09:14:59;17.50;;;5.60;;
76727;SDS011;65652;53.132;18.026;2023-02-24T09:17:29;12.10;;;4.10;;
76727;SDS011;65652;53.132;18.026;2023-02-24T09:20:07;12.30;;;3.70;;
76727;SDS011;65652;53.132;18.026;2023-02-24T09:22:53;9.30;;;2.80;;
76727;SDS011;65652;53.132;18.026;2023-02-24T09:25:25;13.30;;;4.00;;
76727;SDS011;65652;53.132;18.026;2023-02-24T09:28:20;14.00;;;4.20;;
76727;SDS011;65652;53.132;18.026;2023-02-24T09:30:50;19.90;;;6.60;;
76727;SDS011;65652;53.132;18.026;2023-02-24T09:33:27;18.50;;;6.50;;
76727;SDS011;65652;53.132;18.026;2023-02-24T09:36:05;26.00;;;10.80;;
76727;SDS011;65652;53.132;18.026;2023-02-24T09:38:45;18.50;;;6.50;;
76727;SDS011;65652;53.132;18.026;2023-02-24T09:47:11;22.90;;;8.60;;
76727;SDS011;65652;53.132;18.026;2023-02-24T09:49:57;11.00;;;4.80;;
76727;SDS011;65652;53.132;18.026;2023-02-24T09:52:29;14.70;;;5.30;;
76727;SDS011;65652;53.132;18.026;2023-02-24T09:57:52;10.80;;;3.20;;
76727;SDS011;65652;53.132;18.026;2023-02-24T10:00:55;11.30;;;3.60;;
76727;SDS011;65652;53.132;18.026;2023-02-24T10:03:47;9.10;;;2.60;;
76727;SDS011;65652;53.132;18.026;2023-02-24T10:06:18;9.00;;;1.90;;
76727;SDS011;65652;53.132;18.026;2023-02-24T10:08:58;9.40;;;2.90;;
76727;SDS011;65652;53.132;18.026;2023-02-24T10:11:37;11.40;;;2.80;;
76727;SDS011;65652;53.132;18.026;2023-02-24T10:17:15;8.90;;;2.10;;
76727;SDS011;65652;53.132;18.026;2023-02-24T10:25:01;7.10;;;2.10;;
76727;SDS011;65652;53.132;18.026;2023-02-24T10:27:57;10.60;;;2.80;;
76727;SDS011;65652;53.132;18.026;2023-02-24T10:30:43;6.20;;;1.60;;
76727;SDS011;65652;53.132;18.026;2023-02-24T10:33:23;5.80;;;1.90;;
76727;SDS011;65652;53.132;18.026;2023-02-24T10:36:13;10.60;;;3.00;;
76727;SDS011;65652;53.132;18.026;2023-02-24T10:38:43;9.00;;;2.40;;
76727;SDS011;65652;53.132;18.026;2023-02-24T10:41:11;14.40;;;2.90;;
76727;SDS011;65652;53.132;18.026;2023-02-24T10:43:39;7.50;;;2.00;;
76727;SDS011;65652;53.132;18.026;2023-02-24T10:46:22;6.90;;;2.00;;
76727;SDS011;65652;53.132;18.026;2023-02-24T10:48:52;7.20;;;2.40;;
76727;SDS011;65652;53.132;18.026;2023-02-24T10:52:09;7.10;;;1.90;;
76727;SDS011;65652;53.132;18.026;2023-02-24T10:56:49;7.40;;;2.20;;
76727;SDS011;65652;53.132;18.026;2023-02-24T10:59:45;5.00;;;1.40;;
76727;SDS011;65652;53.132;18.026;2023-02-24T11:02:36;7.10;;;2.10;;
76727;SDS011;65652;53.132;18.026;2023-02-24T11:05:23;8.50;;;1.80;;
76727;SDS011;65652;53.132;18.026;2023-02-24T11:08:10;8.30;;;2.20;;
76727;SDS011;65652;53.132;18.026;2023-02-24T11:11:06;8.40;;;2.60;;
76727;SDS011;65652;53.132;18.026;2023-02-24T11:13:48;7.50;;;2.00;;
76727;SDS011;65652;53.132;18.026;2023-02-24T11:16:47;9.50;;;3.10;;
76727;SDS011;65652;53.132;18.026;2023-02-24T11:19:44;11.50;;;4.90;;
76727;SDS011;65652;53.132;18.026;2023-02-24T11:22:16;9.20;;;3.30;;
76727;SDS011;65652;53.132;18.026;2023-02-24T11:24:46;9.40;;;3.10;;
76727;SDS011;65652;53.132;18.026;2023-02-24T11:35:12;8.30;;;2.00;;
76727;SDS011;65652;53.132;18.026;2023-02-24T11:43:14;8.80;;;2.20;;
76727;SDS011;65652;53.132;18.026;2023-02-24T11:45:46;10.00;;;2.30;;
76727;SDS011;65652;53.132;18.026;2023-02-24T11:48:25;10.80;;;2.70;;
76727;SDS011;65652;53.132;18.026;2023-02-24T11:50:55;15.50;;;3.40;;
76727;SDS011;65652;53.132;18.026;2023-02-24T11:56:27;9.10;;;1.90;;
76727;SDS011;65652;53.132;18.026;2023-02-24T12:06:49;6.40;;;2.60;;
76727;SDS011;65652;53.132;18.026;2023-02-24T12:09:29;9.80;;;2.90;;
76727;SDS011;65652;53.132;18.026;2023-02-24T12:12:05;8.70;;;2.40;;
76727;SDS011;65652;53.132;18.026;2023-02-24T12:14:39;11.10;;;3.30;;
76727;SDS011;65652;53.132;18.026;2023-02-24T12:17:20;12.10;;;2.30;;
76727;SDS011;65652;53.132;18.026;2023-02-24T12:20:04;8.90;;;2.20;;
76727;SDS011;65652;53.132;18.026;2023-02-24T12:25:45;9.40;;;2.60;;
76727;SDS011;65652;53.132;18.026;2023-02-24T12:28:17;7.90;;;2.30;;
76727;SDS011;65652;53.132;18.026;2023-02-24T12:31:01;10.20;;;2.30;;
76727;SDS011;65652;53.132;18.026;2023-02-24T12:33:48;9.70;;;3.20;;
76727;SDS011;65652;53.132;18.026;2023-02-24T12:39:21;6.70;;;1.70;;
76727;SDS011;65652;53.132;18.026;2023-02-24T12:44:47;6.70;;;2.20;;
76727;SDS011;65652;53.132;18.026;2023-02-24T12:47:24;9.20;;;2.50;;
76727;SDS011;65652;53.132;18.026;2023-02-24T12:52:57;8.70;;;1.90;;
76727;SDS011;65652;53.132;18.026;2023-02-24T13:03:30;7.20;;;1.70;;
76727;SDS011;65652;53.132;18.026;2023-02-24T13:06:04;9.40;;;2.40;;
76727;SDS011;65652;53.132;18.026;2023-02-24T13:11:38;8.20;;;1.90;;
76727;SDS011;65652;53.132;18.026;2023-02-24T13:16:42;7.30;;;1.90;;
76727;SDS011;65652;53.132;18.026;2023-02-24T13:19:19;8.00;;;2.30;;
76727;SDS011;65652;53.132;18.026;2023-02-24T13:24:31;8.10;;;1.70;;
76727;SDS011;65652;53.132;18.026;2023-02-24T13:29:47;9.20;;;2.40;;
76727;SDS011;65652;53.132;18.026;2023-02-24T13:37:37;9.80;;;2.40;;
76727;SDS011;65652;53.132;18.026;2023-02-24T13:45:27;7.80;;;2.20;;
76727;SDS011;65652;53.132;18.026;2023-02-24T14:04:43;6.80;;;1.50;;
76727;SDS011;65652;53.132;18.026;2023-02-24T14:07:26;5.40;;;1.60;;
76727;SDS011;65652;53.132;18.026;2023-02-24T14:09:57;8.70;;;1.80;;
76727;SDS011;65652;53.132;18.026;2023-02-24T14:12:27;6.80;;;1.60;;
76727;SDS011;65652;53.132;18.026;2023-02-24T14:14:56;8.90;;;1.70;;
76727;SDS011;65652;53.132;18.026;2023-02-24T14:17:28;9.80;;;1.90;;
76727;SDS011;65652;53.132;18.026;2023-02-24T14:22:46;6.20;;;2.10;;
76727;SDS011;65652;53.132;18.026;2023-02-24T14:25:15;11.60;;;3.70;;
76727;SDS011;65652;53.132;18.026;2023-02-24T14:27:43;7.80;;;3.30;;
76727;SDS011;65652;53.132;18.026;2023-02-24T14:32:47;8.30;;;1.80;;
76727;SDS011;65652;53.132;18.026;2023-02-24T14:35:18;6.70;;;1.40;;
76727;SDS011;65652;53.132;18.026;2023-02-24T14:38:04;6.80;;;1.50;;
76727;SDS011;65652;53.132;18.026;2023-02-24T14:40:31;6.90;;;1.80;;
76727;SDS011;65652;53.132;18.026;2023-02-24T14:42:58;7.40;;;1.80;;
76727;SDS011;65652;53.132;18.026;2023-02-24T14:45:25;8.70;;;1.90;;
76727;SDS011;65652;53.132;18.026;2023-02-24T14:47:54;5.60;;;1.30;;
76727;SDS011;65652;53.132;18.026;2023-02-24T14:50:25;7.00;;;1.90;;
76727;SDS011;65652;53.132;18.026;2023-02-24T14:55:28;8.70;;;2.40;;
76727;SDS011;65652;53.132;18.026;2023-02-24T14:58:11;7.20;;;1.90;;
76727;SDS011;65652;53.132;18.026;2023-02-24T15:00:47;8.40;;;1.60;;
76727;SDS011;65652;53.132;18.026;2023-02-24T15:03:25;8.60;;;2.00;;
76727;SDS011;65652;53.132;18.026;2023-02-24T15:05:54;9.40;;;1.70;;
76727;SDS011;65652;53.132;18.026;2023-02-24T15:08:35;8.50;;;2.10;;
76727;SDS011;65652;53.132;18.026;2023-02-24T15:13:42;6.20;;;1.80;;
76727;SDS011;65652;53.132;18.026;2023-02-24T15:16:17;7.50;;;2.00;;
76727;SDS011;65652;53.132;18.026;2023-02-24T15:18:51;5.80;;;1.40;;
76727;SDS011;65652;53.132;18.026;2023-02-24T15:21:22;8.00;;;2.00;;
76727;SDS011;65652;53.132;18.026;2023-02-24T15:24:26;6.00;;;2.00;;
76727;SDS011;65652;53.132;18.026;2023-02-24T15:29:24;8.50;;;2.20;;
76727;SDS011;65652;53.132;18.026;2023-02-24T15:31:53;6.70;;;2.00;;
76727;SDS011;65652;53.132;18.026;2023-02-24T15:34:21;8.50;;;1.80;;
76727;SDS011;65652;53.132;18.026;2023-02-24T15:36:54;9.10;;;2.50;;
76727;SDS011;65652;53.132;18.026;2023-02-24T15:39:25;7.50;;;2.50;;
76727;SDS011;65652;53.132;18.026;2023-02-24T15:42:05;8.10;;;2.30;;
76727;SDS011;65652;53.132;18.026;2023-02-24T15:44:52;10.40;;;2.50;;
76727;SDS011;65652;53.132;18.026;2023-02-24T15:47:27;9.30;;;3.00;;
76727;SDS011;65652;53.132;18.026;2023-02-24T15:50:05;7.20;;;2.10;;
76727;SDS011;65652;53.132;18.026;2023-02-24T15:52:31;6.50;;;2.30;;
76727;SDS011;65652;53.132;18.026;2023-02-24T15:54:58;10.10;;;2.40;;
76727;SDS011;65652;53.132;18.026;2023-02-24T15:57:27;7.00;;;2.20;;
76727;SDS011;65652;53.132;18.026;2023-02-24T15:59:56;11.00;;;2.30;;
76727;SDS011;65652;53.132;18.026;2023-02-24T16:02:23;7.90;;;2.10;;
76727;SDS011;65652;53.132;18.026;2023-02-24T16:04:50;7.50;;;2.10;;
76727;SDS011;65652;53.132;18.026;2023-02-24T16:07:21;6.30;;;1.70;;
76727;SDS011;65652;53.132;18.026;2023-02-24T16:09:51;7.70;;;2.50;;
76727;SDS011;65652;53.132;18.026;2023-02-24T16:12:20;11.50;;;2.50;;
76727;SDS011;65652;53.132;18.026;2023-02-24T16:14:50;7.80;;;2.10;;
76727;SDS011;65652;53.132;18.026;2023-02-24T16:17:34;8.70;;;2.60;;
76727;SDS011;65652;53.132;18.026;2023-02-24T16:20:06;9.10;;;2.50;;
76727;SDS011;65652;53.132;18.026;2023-02-24T16:22:37;7.40;;;2.20;;
76727;SDS011;65652;53.132;18.026;2023-02-24T16:25:04;7.10;;;2.10;;
76727;SDS011;65652;53.132;18.026;2023-02-24T16:27:31;7.40;;;2.20;;
76727;SDS011;65652;53.132;18.026;2023-02-24T16:29:58;8.70;;;2.20;;
76727;SDS011;65652;53.132;18.026;2023-02-24T16:32:25;8.10;;;2.20;;
76727;SDS011;65652;53.132;18.026;2023-02-24T16:34:54;6.80;;;2.10;;
76727;SDS011;65652;53.132;18.026;2023-02-24T16:37:27;10.30;;;2.60;;
76727;SDS011;65652;53.132;18.026;2023-02-24T16:39:55;6.90;;;2.00;;
76727;SDS011;65652;53.132;18.026;2023-02-24T16:42:24;7.10;;;2.20;;
76727;SDS011;65652;53.132;18.026;2023-02-24T16:44:50;8.80;;;2.40;;
76727;SDS011;65652;53.132;18.026;2023-02-24T16:47:17;8.20;;;2.30;;
76727;SDS011;65652;53.132;18.026;2023-02-24T16:49:46;9.50;;;2.10;;
76727;SDS011;65652;53.132;18.026;2023-02-24T16:52:13;8.60;;;2.40;;
76727;SDS011;65652;53.132;18.026;2023-02-24T16:54:44;10.20;;;2.40;;
76727;SDS011;65652;53.132;18.026;2023-02-24T16:57:10;7.20;;;1.90;;
76727;SDS011;65652;53.132;18.026;2023-02-24T16:59:36;6.60;;;1.70;;
76727;SDS011;65652;53.132;18.026;2023-02-24T17:02:02;8.00;;;2.10;;
76727;SDS011;65652;53.132;18.026;2023-02-24T17:04:29;11.10;;;2.50;;
76727;SDS011;65652;53.132;18.026;2023-02-24T17:06:56;6.10;;;2.00;;
76727;SDS011;65652;53.132;18.026;2023-02-24T17:09:23;6.60;;;1.80;;
76727;SDS011;65652;53.132;18.026;2023-02-24T17:11:50;7.30;;;2.30;;
76727;SDS011;65652;53.132;18.026;2023-02-24T17:14:17;6.50;;;2.50;;
76727;SDS011;65652;53.132;18.026;2023-02-24T17:19:12;6.00;;;1.40;;
76727;SDS011;65652;53.132;18.026;2023-02-24T17:21:40;9.60;;;2.10;;
76727;SDS011;65652;53.132;18.026;2023-02-24T17:24:11;6.00;;;2.10;;
76727;SDS011;65652;53.132;18.026;2023-02-24T17:26:43;8.40;;;2.10;;
76727;SDS011;65652;53.132;18.026;2023-02-24T17:29:10;10.10;;;2.50;;
76727;SDS011;65652;53.132;18.026;2023-02-24T17:31:37;7.50;;;1.90;;
76727;SDS011;65652;53.132;18.026;2023-02-24T17:34:04;7.90;;;2.20;;
76727;SDS011;65652;53.132;18.026;2023-02-24T17:36:30;7.80;;;2.50;;